createdAt,value
2018-12-14T00:00:41.715Z,99523.08
2018-12-14T00:03:11.650Z,99520.68
2018-12-14T00:05:42.011Z,99526.14
2018-12-14T00:08:12.342Z,99526.91
2018-12-14T00:10:42.169Z,99524.73
2018-12-14T00:13:12.498Z,99524.31
2018-12-14T00:15:42.678Z,99521.39
2018-12-14T00:18:12.773Z,99495.84
2018-12-14T00:20:43.094Z,99526.84
2018-12-14T00:23:13.139Z,99528.78
2018-12-14T00:25:44.171Z,99524.28
2018-12-14T00:28:14.547Z,99526.61
2018-12-14T00:30:44.591Z,99523.27
2018-12-14T00:33:14.577Z,99528.53
2018-12-14T00:35:45.185Z,99533.22
2018-12-14T00:38:15.241Z,99534.80
2018-12-14T00:40:45.043Z,99530.30
2018-12-14T00:43:15.399Z,99527.39
2018-12-14T00:45:45.306Z,99529.14
2018-12-14T00:48:15.377Z,99533.03
2018-12-14T00:50:45.793Z,99534.81
2018-12-14T00:53:15.826Z,99540.11
2018-12-14T00:55:45.709Z,99539.11
2018-12-14T00:58:16.071Z,99531.91
2018-12-14T01:00:46.142Z,99539.52
2018-12-14T01:03:16.265Z,99541.09
2018-12-14T01:05:46.530Z,99540.89
2018-12-14T01:08:16.333Z,99544.41
2018-12-14T01:10:46.330Z,99545.77
2018-12-14T01:13:16.678Z,99552.03
2018-12-14T01:15:46.674Z,99530.03
2018-12-14T01:18:16.833Z,99543.62
2018-12-14T01:20:47.117Z,99547.31
2018-12-14T01:23:17.449Z,99544.40
2018-12-14T01:25:47.705Z,99551.22
2018-12-14T01:28:18.278Z,99548.27
2018-12-14T01:30:48.522Z,99542.42
2018-12-14T01:33:18.354Z,99543.58
2018-12-14T01:35:48.656Z,99542.02
2018-12-14T01:38:18.676Z,99537.31
2018-12-14T01:40:48.759Z,99520.78
2018-12-14T01:43:19.053Z,99544.95
2018-12-14T01:45:49.185Z,99523.72
2018-12-14T01:48:19.316Z,99538.69
2018-12-14T01:50:49.761Z,99530.13
2018-12-14T01:53:19.749Z,99533.83
2018-12-14T01:55:49.847Z,99537.36
2018-12-14T01:58:20.288Z,99542.63
2018-12-14T02:00:50.575Z,99534.80
2018-12-14T02:03:20.555Z,99543.19
2018-12-14T02:05:50.921Z,99538.50
2018-12-14T02:08:21.064Z,99532.84
2018-12-14T02:10:50.802Z,99532.64
2018-12-14T02:13:21.166Z,99532.07
2018-12-14T02:15:50.970Z,99530.72
2018-12-14T02:18:21.638Z,99534.05
2018-12-14T02:20:51.916Z,99531.52
2018-12-14T02:23:22.104Z,99532.48
2018-12-14T02:25:52.159Z,99532.48
2018-12-14T02:28:22.644Z,99488.66
2018-12-14T02:30:52.679Z,99532.27
2018-12-14T02:33:22.532Z,99531.11
2018-12-14T02:35:52.880Z,99524.84
2018-12-14T02:38:22.901Z,99520.00
2018-12-14T02:40:53.312Z,99529.75
2018-12-14T02:43:23.857Z,99532.31
2018-12-14T02:45:53.930Z,99526.05
2018-12-14T02:48:24.183Z,99528.96
2018-12-14T02:50:54.436Z,99522.50
2018-12-14T02:53:24.600Z,99524.66
2018-12-14T02:55:54.656Z,99525.25
2018-12-14T02:58:24.895Z,99523.88
2018-12-14T03:00:54.796Z,99527.41
2018-12-14T03:03:24.358Z,99522.90
2018-12-14T03:05:55.118Z,99529.92
2018-12-14T03:08:25.338Z,99529.76
2018-12-14T03:19:22.886Z,99483.97
2018-12-14T03:21:51.418Z,99533.47
2018-12-14T03:24:20.212Z,99526.84
2018-12-14T03:26:48.332Z,99528.80
2018-12-14T03:29:17.025Z,99533.89
2018-12-14T03:31:45.446Z,99537.00
2018-12-14T03:34:13.939Z,99543.84
2018-12-14T03:36:42.824Z,99540.12
2018-12-14T03:39:12.116Z,99480.52
2018-12-14T03:41:44.850Z,99482.23
2018-12-14T03:44:14.745Z,99491.75
2018-12-14T03:46:43.616Z,99491.35
2018-12-14T03:49:11.874Z,99528.15
2018-12-14T03:51:40.435Z,99538.13
2018-12-14T03:54:09.359Z,99541.08
2018-12-14T03:56:37.460Z,99524.55
2018-12-14T03:59:06.245Z,99536.37
2018-12-14T04:01:34.669Z,99530.70
2018-12-14T04:04:03.353Z,99533.27
2018-12-14T04:06:31.635Z,99533.86
2018-12-14T04:09:00.604Z,99480.50
2018-12-14T04:11:29.384Z,99500.75
2018-12-14T04:13:58.393Z,99534.41
2018-12-14T04:16:29.073Z,99534.63
2018-12-14T04:18:58.487Z,99518.24
2018-12-14T04:21:27.131Z,99529.73
2018-12-14T04:23:55.898Z,99537.73
2018-12-14T04:26:24.033Z,99476.19
2018-12-14T04:28:52.526Z,99540.29
2018-12-14T04:31:21.954Z,99538.34
2018-12-14T04:33:50.293Z,99536.95
2018-12-14T04:36:18.824Z,99548.09
2018-12-14T04:38:47.649Z,99550.04
2018-12-14T04:41:18.052Z,99490.13
2018-12-14T04:43:46.927Z,99502.88
2018-12-14T04:46:16.814Z,99482.45
2018-12-14T04:48:45.304Z,99460.44
2018-12-14T04:51:13.982Z,99542.23
2018-12-14T04:53:43.599Z,99505.61
2018-12-14T04:56:13.487Z,99526.08
2018-12-14T04:58:42.996Z,99512.28
2018-12-14T05:01:11.990Z,99531.45
2018-12-14T05:03:40.415Z,99499.00
2018-12-14T05:06:09.789Z,99538.55
2018-12-14T05:08:38.706Z,99539.16
2018-12-14T05:11:08.198Z,99542.08
2018-12-14T05:13:36.884Z,99547.17
2018-12-14T05:16:08.928Z,99542.88
2018-12-14T05:18:38.623Z,99547.73
2018-12-14T05:21:14.990Z,99543.84
2018-12-14T05:25:08.780Z,99540.71
2018-12-14T05:27:38.705Z,99541.14
2018-12-14T05:30:09.200Z,99538.23
2018-12-14T05:32:38.122Z,99541.97
2018-12-14T05:35:07.015Z,99547.47
2018-12-14T05:37:35.432Z,99545.16
2018-12-14T05:40:05.252Z,99552.83
2018-12-14T05:42:37.388Z,99557.16
2018-12-14T05:45:08.922Z,99554.04
2018-12-14T05:47:37.907Z,99557.98
2018-12-14T05:50:07.606Z,99537.23
2018-12-14T05:52:38.229Z,99529.55
2018-12-14T05:55:08.066Z,99321.36
2018-12-14T05:57:36.162Z,99543.23
2018-12-14T06:00:05.671Z,99554.91
2018-12-14T06:02:33.854Z,99563.14
2018-12-14T06:05:04.147Z,99560.80
2018-12-14T06:07:34.005Z,99566.28
2018-12-14T06:10:03.895Z,99567.87
2018-12-14T06:12:34.192Z,99567.09
2018-12-14T06:15:04.371Z,99561.63
2018-12-14T06:17:32.706Z,99560.66
2018-12-14T06:20:05.220Z,99562.25
2018-12-14T06:22:33.414Z,99559.34
2018-12-14T06:25:01.873Z,99563.63
2018-12-14T06:27:33.824Z,99564.25
2018-12-14T06:30:04.696Z,99524.69
2018-12-14T06:32:32.755Z,99560.34
2018-12-14T06:35:01.657Z,99567.39
2018-12-14T06:37:30.000Z,99569.92
2018-12-14T06:39:58.641Z,99570.53
2018-12-14T06:42:26.819Z,99579.31
2018-12-14T06:44:55.332Z,99577.37
2018-12-14T06:47:23.866Z,99577.58
2018-12-14T06:49:51.966Z,99577.77
2018-12-14T06:52:20.230Z,99583.05
2018-12-14T06:54:49.310Z,99584.59
2018-12-14T06:57:17.833Z,99417.88
2018-12-14T06:59:47.003Z,99582.27
2018-12-14T07:02:15.550Z,99588.91
2018-12-14T07:04:44.217Z,99595.73
2018-12-14T07:07:12.890Z,99481.63
2018-12-14T07:09:41.510Z,99604.91
2018-12-14T07:12:09.714Z,99599.08
2018-12-14T07:14:37.863Z,99602.96
2018-12-14T07:17:07.069Z,99602.95
2018-12-14T07:19:35.154Z,99607.45
2018-12-14T07:22:03.703Z,99606.86
2018-12-14T07:24:32.544Z,99612.14
2018-12-14T07:27:00.730Z,99617.79
2018-12-14T07:29:29.306Z,99623.46
2018-12-14T07:31:58.227Z,99625.19
2018-12-14T07:34:27.461Z,99618.97
2018-12-14T07:36:55.813Z,99629.67
2018-12-14T07:39:25.883Z,99413.11
2018-12-14T07:41:54.231Z,99645.88
2018-12-14T07:44:23.236Z,99645.69
2018-12-14T07:46:52.816Z,99651.91
2018-12-14T07:49:21.766Z,99570.71
2018-12-14T07:51:49.987Z,99650.35
2018-12-14T07:54:22.356Z,99654.05
2018-12-14T07:56:50.705Z,99652.69
2018-12-14T07:59:19.131Z,99666.95
2018-12-14T08:01:48.235Z,99661.09
2018-12-14T08:04:17.868Z,99664.01
2018-12-14T08:06:47.213Z,99671.41
2018-12-14T08:09:19.054Z,99676.30
2018-12-14T08:11:48.571Z,99679.81
2018-12-14T08:14:17.067Z,99680.22
2018-12-14T08:16:46.684Z,99681.20
2018-12-14T08:19:15.938Z,99681.00
2018-12-14T08:21:45.281Z,99680.62
2018-12-14T08:24:13.832Z,99688.43
2018-12-14T08:26:42.323Z,99693.11
2018-12-14T08:29:12.076Z,99689.98
2018-12-14T08:31:41.111Z,99697.22
2018-12-14T08:34:09.395Z,99695.68
2018-12-14T08:36:39.468Z,99702.89
2018-12-14T08:39:09.671Z,99697.64
2018-12-14T08:41:38.053Z,99697.44
2018-12-14T08:44:06.084Z,99701.55
2018-12-14T08:46:34.680Z,99703.50
2018-12-14T08:49:02.779Z,99696.47
2018-12-14T08:51:30.978Z,99708.58
2018-12-14T08:54:00.066Z,99698.04
2018-12-14T08:56:28.643Z,99706.03
2018-12-14T08:58:57.002Z,99619.35
2018-12-14T09:01:27.331Z,99719.13
2018-12-14T09:03:56.156Z,99715.22
2018-12-14T09:06:24.893Z,99698.44
2018-12-14T09:08:53.709Z,99716.59
2018-12-14T09:11:22.246Z,99718.93
2018-12-14T09:13:50.630Z,99720.70
2018-12-14T09:16:19.464Z,99719.52
2018-12-14T09:18:48.114Z,99725.38
2018-12-14T09:21:16.229Z,99724.80
2018-12-14T09:23:44.475Z,99724.77
2018-12-14T09:26:13.662Z,99725.56
2018-12-14T09:28:43.283Z,99723.41
2018-12-14T09:31:11.374Z,99724.59
2018-12-14T09:33:39.783Z,99722.22
2018-12-14T09:36:08.849Z,99505.03
2018-12-14T09:38:39.341Z,99661.12
2018-12-14T09:41:08.691Z,99724.16
2018-12-14T09:43:36.787Z,99720.27
2018-12-14T09:46:05.648Z,99728.47
2018-12-14T09:48:33.991Z,99723.57
2018-12-14T09:51:03.195Z,99727.28
2018-12-14T09:53:31.518Z,99727.85
2018-12-14T09:56:00.604Z,99725.69
2018-12-14T09:58:29.029Z,99728.42
2018-12-14T10:04:18.296Z,99552.83
2018-12-14T10:06:47.934Z,99601.35
2018-12-14T10:09:15.776Z,99720.95
2018-12-14T10:11:45.059Z,99723.00
2018-12-14T10:14:13.931Z,99707.91
2018-12-14T10:16:43.456Z,99724.85
2018-12-14T10:19:13.315Z,99722.11
2018-12-14T10:21:41.259Z,99721.71
2018-12-14T10:24:09.577Z,99713.49
2018-12-14T10:26:37.679Z,99439.31
2018-12-14T10:29:07.148Z,99715.61
2018-12-14T10:31:37.844Z,99457.60
2018-12-14T10:34:05.860Z,99716.17
2018-12-14T10:36:35.305Z,99720.09
2018-12-14T10:39:07.882Z,99715.98
2018-12-14T10:41:36.174Z,99721.23
2018-12-14T10:44:07.405Z,99710.48
2018-12-14T10:46:32.099Z,99710.25
2018-12-14T10:49:00.295Z,99705.56
2018-12-14T10:51:31.407Z,99626.28
2018-12-14T10:54:01.301Z,99690.53
2018-12-14T10:56:30.461Z,99716.10
2018-12-14T10:58:58.287Z,99651.39
2018-12-14T11:01:33.387Z,99670.22
2018-12-14T11:04:06.938Z,99711.58
2018-12-14T11:06:36.019Z,99733.92
2018-12-14T11:09:05.736Z,99703.52
2018-12-14T11:11:34.379Z,99708.02
2018-12-14T11:16:34.604Z,99709.57
2018-12-14T11:19:03.037Z,99704.88
2018-12-14T11:21:31.451Z,99701.55
2018-12-14T11:23:59.239Z,99701.73
2018-12-14T11:26:27.822Z,99663.20
2018-12-14T11:28:55.724Z,99701.52
2018-12-14T11:31:23.523Z,99697.20
2018-12-14T11:33:51.796Z,99475.78
2018-12-14T11:36:19.602Z,99697.58
2018-12-14T11:38:47.387Z,99708.00
2018-12-14T11:41:18.548Z,99691.69
2018-12-14T11:43:43.920Z,99696.19
2018-12-14T11:46:14.208Z,99700.66
2018-12-14T11:48:42.797Z,99443.24
2018-12-14T11:51:14.017Z,99696.53
2018-12-14T11:53:43.863Z,99681.72
2018-12-14T11:56:13.121Z,99703.37
2018-12-14T11:58:41.550Z,99695.52
2018-12-14T12:01:09.529Z,99696.08
2018-12-14T12:03:42.746Z,99699.20
2018-12-14T12:06:06.012Z,99692.12
2018-12-14T12:08:35.931Z,99691.13
2018-12-14T12:11:04.252Z,99692.89
2018-12-14T12:13:35.418Z,99697.97
2018-12-14T12:16:04.202Z,99699.34
2018-12-14T12:18:32.400Z,99696.21
2018-12-14T12:21:00.429Z,99696.02
2018-12-14T12:23:28.621Z,99700.54
2018-12-14T12:25:57.303Z,99694.45
2018-12-14T12:28:25.042Z,99695.25
2018-12-14T12:30:53.336Z,99745.39
2018-12-14T12:33:21.691Z,99543.41
2018-12-14T12:35:49.644Z,99695.64
2018-12-14T12:38:18.505Z,99699.56
2018-12-14T12:40:46.674Z,99707.98
2018-12-14T12:43:14.771Z,99702.50
2018-12-14T12:45:45.406Z,99700.14
2018-12-14T12:48:13.562Z,99697.60
2018-12-14T12:50:41.770Z,99695.08
2018-12-14T12:53:09.611Z,99685.22
2018-12-14T12:55:37.511Z,99694.45
2018-12-14T12:58:08.210Z,99694.26
2018-12-14T13:00:38.558Z,99693.47
2018-12-14T13:03:07.382Z,99709.22
2018-12-14T13:05:40.191Z,99690.94
2018-12-14T13:08:09.267Z,99698.55
2018-12-14T13:10:38.704Z,99508.13
2018-12-14T13:13:07.284Z,99675.16
2018-12-14T13:15:35.147Z,99696.05
2018-12-14T13:18:04.019Z,99694.11
2018-12-14T13:20:33.405Z,99687.44
2018-12-14T13:23:02.244Z,99692.34
2018-12-14T13:25:30.348Z,99690.18
2018-12-14T13:27:58.113Z,99668.72
2018-12-14T13:30:26.259Z,99692.92
2018-12-14T13:32:54.116Z,99694.10
2018-12-14T13:35:22.028Z,99694.86
2018-12-14T13:37:52.077Z,99699.19
2018-12-14T13:40:20.015Z,99699.98
2018-12-14T13:42:48.170Z,99679.09
2018-12-14T13:45:16.629Z,99682.64
2018-12-14T13:47:44.756Z,99698.63
2018-12-14T13:50:12.687Z,99700.20
2018-12-14T13:52:41.480Z,99732.70
2018-12-14T13:55:10.332Z,99703.33
2018-12-14T13:57:38.129Z,99704.14
2018-12-14T14:00:06.538Z,99628.50
2018-12-14T14:02:36.105Z,99698.46
2018-12-14T14:05:05.044Z,99696.34
2018-12-14T14:07:35.133Z,99666.34
2018-12-14T14:10:04.389Z,99701.25
2018-12-14T14:12:32.355Z,99708.68
2018-12-14T14:15:00.656Z,99712.01
2018-12-14T14:17:29.897Z,99712.98
2018-12-14T14:20:02.350Z,99712.41
2018-12-14T14:22:32.593Z,99679.46
2018-12-14T14:25:02.896Z,99720.05
2018-12-14T14:27:33.058Z,99720.81
2018-12-14T14:30:02.899Z,99727.09
2018-12-14T14:32:33.967Z,99715.73
2018-12-14T14:35:06.040Z,99599.19
2018-12-14T14:37:38.946Z,99730.23
2018-12-14T14:40:08.669Z,99727.72
2018-12-14T14:42:39.595Z,99727.12
2018-12-14T14:45:10.151Z,99733.00
2018-12-14T14:47:42.825Z,99719.57
2018-12-14T14:50:11.796Z,99732.81
2018-12-14T14:52:40.814Z,99737.91
2018-12-14T14:55:16.196Z,99740.64
2018-12-14T14:57:48.992Z,99650.72
2018-12-14T15:00:20.145Z,99748.45
2018-12-14T15:02:53.395Z,99749.64
2018-12-14T15:05:23.944Z,99758.23
2018-12-14T15:07:53.987Z,99759.42
2018-12-14T15:10:23.209Z,99755.71
2018-12-14T15:12:52.515Z,99773.92
2018-12-14T15:15:20.467Z,99771.36
2018-12-14T15:17:48.330Z,99777.05
2018-12-14T15:20:17.003Z,99778.79
2018-12-14T15:22:46.973Z,99788.77
2018-12-14T15:25:15.594Z,99785.23
2018-12-14T15:27:45.980Z,99787.60
2018-12-14T15:30:13.969Z,99772.31
2018-12-14T15:32:42.675Z,99687.66
2018-12-14T15:35:10.644Z,99781.50
2018-12-14T15:37:38.984Z,99785.44
2018-12-14T15:40:11.072Z,99747.20
2018-12-14T15:42:39.503Z,99792.28
2018-12-14T15:45:13.059Z,99792.47
2018-12-14T15:47:38.979Z,99774.73
2018-12-14T15:50:07.832Z,99801.89
2018-12-14T15:52:36.572Z,99797.39
2018-12-14T15:55:07.911Z,99803.27
2018-12-14T15:57:37.582Z,99804.42
2018-12-14T16:00:09.734Z,99777.70
2018-12-14T16:02:39.710Z,99818.13
2018-12-14T16:05:10.449Z,99815.59
2018-12-14T16:07:43.339Z,99810.13
2018-12-14T16:10:14.865Z,99810.52
2018-12-14T16:12:45.829Z,99813.44
2018-12-14T16:15:19.678Z,99811.72
2018-12-14T16:17:43.513Z,99809.16
2018-12-14T16:20:16.244Z,99809.96
2018-12-14T16:22:55.887Z,99742.42
2018-12-14T16:25:27.381Z,99814.08
2018-12-14T16:28:02.575Z,99802.00
2018-12-14T16:30:34.653Z,99811.59
2018-12-14T16:33:05.606Z,99822.89
2018-12-14T16:35:37.114Z,99823.87
2018-12-14T16:38:06.713Z,99823.87
2018-12-14T16:40:35.508Z,99825.45
2018-12-14T16:43:06.559Z,99819.00
2018-12-14T16:45:36.267Z,99822.14
2018-12-14T16:48:07.981Z,99831.11
2018-12-14T16:50:40.222Z,99830.53
2018-12-14T16:53:08.544Z,99870.45
2018-12-14T16:55:39.580Z,99795.00
2018-12-14T16:58:09.776Z,99832.09
2018-12-14T17:00:39.849Z,99824.66
2018-12-14T17:03:10.768Z,99827.80
2018-12-14T17:05:41.250Z,99828.36
2018-12-14T17:08:15.052Z,99829.34
2018-12-14T17:10:45.062Z,99827.78
2018-12-14T17:13:15.792Z,99833.66
2018-12-14T17:15:47.889Z,99830.92
2018-12-14T17:18:21.828Z,99817.83
2018-12-14T17:20:52.978Z,99809.25
2018-12-14T17:23:22.123Z,99831.68
2018-12-14T17:25:52.910Z,99819.41
2018-12-14T17:28:24.072Z,99817.06
2018-12-14T17:30:54.125Z,99836.39
2018-12-14T17:33:23.978Z,99811.76
2018-12-14T17:35:53.250Z,99813.70
2018-12-14T17:38:23.957Z,99815.69
2018-12-14T17:40:55.902Z,99802.98
2018-12-14T17:43:27.769Z,99837.95
2018-12-14T17:46:00.255Z,99841.87
2018-12-14T17:48:35.071Z,99767.25
2018-12-14T17:51:09.756Z,99801.05
2018-12-14T17:53:41.552Z,99682.54
2018-12-14T17:56:19.281Z,99841.25
2018-12-14T17:58:50.639Z,99848.89
2018-12-14T18:01:25.930Z,99842.44
2018-12-14T18:03:57.087Z,99845.18
2018-12-14T18:09:00.052Z,99844.79
2018-12-14T18:11:28.862Z,99834.83
2018-12-14T18:13:57.377Z,99850.67
2018-12-14T18:16:27.234Z,99775.47
2018-12-14T18:18:56.189Z,99855.77
2018-12-14T18:21:24.604Z,99846.02
2018-12-14T18:23:53.039Z,99859.08
2018-12-14T18:26:21.345Z,99817.09
2018-12-14T18:28:49.442Z,99855.58
2018-12-14T18:31:19.188Z,99848.33
2018-12-14T18:33:48.336Z,99859.30
2018-12-14T18:36:18.815Z,99860.09
2018-12-14T18:38:52.607Z,99857.53
2018-12-14T18:41:22.264Z,99859.70
2018-12-14T18:43:52.494Z,99860.28
2018-12-14T18:46:22.192Z,99860.86
2018-12-14T18:48:50.762Z,99824.74
2018-12-14T18:51:20.279Z,99865.58
2018-12-14T18:53:53.650Z,99876.73
2018-12-14T18:56:21.745Z,99874.78
2018-12-14T18:58:50.112Z,99884.95
2018-12-14T19:01:19.492Z,99883.40
2018-12-14T19:03:48.038Z,99885.92
2018-12-14T19:06:16.816Z,99888.48
2018-12-14T19:08:45.220Z,99897.89
2018-12-14T19:11:13.571Z,99896.52
2018-12-14T19:13:42.040Z,99876.38
2018-12-14T19:16:12.550Z,99893.97
2018-12-14T19:18:46.703Z,99896.31
2018-12-14T19:21:16.863Z,99901.00
2018-12-14T19:23:45.448Z,99904.75
2018-12-14T19:26:15.858Z,99834.78
2018-12-14T19:28:47.076Z,99905.51
2018-12-14T19:31:17.022Z,99913.15
2018-12-14T19:33:48.399Z,99912.17
2018-12-14T19:36:18.175Z,99917.44
2018-12-14T19:38:50.112Z,99920.39
2018-12-14T19:41:20.703Z,99920.80
2018-12-14T19:43:52.296Z,99978.13
2018-12-14T19:46:22.656Z,99912.80
2018-12-14T19:48:52.383Z,99925.30
2018-12-14T19:51:21.406Z,99927.64
2018-12-14T19:53:54.600Z,99932.73
2018-12-14T19:56:27.144Z,99911.03
2018-12-14T19:58:56.517Z,99931.55
2018-12-14T20:01:29.751Z,99939.58
2018-12-14T20:04:03.603Z,99932.91
2018-12-14T20:06:33.198Z,99942.50
2018-12-14T20:09:02.832Z,99942.72
2018-12-14T20:11:33.168Z,99940.95
2018-12-14T20:14:05.176Z,99903.03
2018-12-14T20:16:34.964Z,99804.12
2018-12-14T20:19:07.443Z,99948.98
2018-12-14T20:21:41.682Z,99947.01
2018-12-14T20:24:18.282Z,99941.13
2018-12-14T20:26:46.706Z,99952.31
2018-12-14T20:29:15.428Z,99951.73
2018-12-14T20:31:46.373Z,99950.36
2018-12-14T20:34:18.677Z,99953.86
2018-12-14T20:36:52.784Z,99881.91
2018-12-14T20:39:27.520Z,99874.88
2018-12-14T20:42:05.927Z,99959.34
2018-12-14T20:44:43.841Z,99836.36
2018-12-14T20:50:00.525Z,99963.66
2018-12-14T20:52:29.401Z,99958.55
2018-12-14T20:55:06.035Z,99948.99
2018-12-14T20:57:33.997Z,99960.71
2018-12-14T21:00:08.831Z,99959.73
2018-12-14T21:02:39.174Z,99951.16
2018-12-14T21:05:18.126Z,99950.55
2018-12-14T21:10:20.365Z,99950.76
2018-12-14T21:12:51.669Z,99937.84
2018-12-14T21:15:23.770Z,99968.94
2018-12-14T21:18:02.780Z,99970.52
2018-12-14T21:20:38.717Z,99946.86
2018-12-14T21:23:17.812Z,99969.14
2018-12-14T21:25:59.021Z,99956.81
2018-12-14T21:28:37.554Z,99896.97
2018-12-14T21:31:14.369Z,99975.20
2018-12-14T21:34:01.437Z,100020.60
2018-12-14T21:36:33.278Z,99973.25
2018-12-14T21:39:07.069Z,99979.09
2018-12-14T21:41:48.243Z,99976.00
2018-12-14T21:44:17.766Z,99984.40
2018-12-14T21:46:46.824Z,99939.42
2018-12-14T21:49:19.033Z,99971.27
2018-12-14T21:51:51.309Z,99981.27
2018-12-14T21:57:08.890Z,99985.19
2018-12-14T21:59:39.713Z,99962.11
2018-12-14T22:02:10.034Z,99977.94
2018-12-14T22:04:39.673Z,99967.38
2018-12-14T22:07:07.935Z,99985.19
2018-12-14T22:09:36.996Z,99984.58
2018-12-14T22:12:09.291Z,99983.42
2018-12-14T22:14:38.252Z,99988.69
2018-12-14T22:17:06.402Z,99983.03
2018-12-14T22:19:34.700Z,99979.50
2018-12-14T22:22:03.634Z,99981.66
2018-12-14T22:24:36.805Z,99947.22
2018-12-14T22:27:06.418Z,99954.07
2018-12-14T22:29:37.805Z,99931.79
2018-12-14T22:32:10.439Z,99984.80
2018-12-14T22:34:40.158Z,99965.43
2018-12-14T22:37:08.489Z,99974.41
2018-12-14T22:39:36.703Z,99957.20
2018-12-14T22:42:06.338Z,99972.86
2018-12-14T22:44:34.715Z,99940.59
2018-12-14T22:47:04.171Z,99981.66
2018-12-14T22:49:32.764Z,99980.87
2018-12-14T22:52:01.640Z,99980.69
2018-12-14T22:54:31.857Z,99979.31
2018-12-14T22:57:04.945Z,99937.23
2018-12-14T22:59:33.380Z,99965.61
2018-12-14T23:02:03.672Z,99935.69
2018-12-14T23:04:34.997Z,99931.37
2018-12-14T23:07:08.976Z,99970.87
2018-12-14T23:09:37.378Z,99972.25
2018-12-14T23:12:06.829Z,99964.03
2018-12-14T23:14:35.153Z,99971.67
2018-12-14T23:17:05.403Z,99943.70
2018-12-14T23:19:35.980Z,99965.80
2018-12-14T23:22:07.604Z,99967.17
2018-12-14T23:24:38.768Z,99898.73
2018-12-14T23:27:06.818Z,99979.89
2018-12-14T23:29:34.773Z,99978.73
2018-12-14T23:32:10.488Z,99976.17
2018-12-14T23:34:43.198Z,99978.92
2018-12-14T23:37:14.064Z,99987.14
2018-12-14T23:39:39.956Z,99980.08
2018-12-14T23:42:11.991Z,99979.89
2018-12-14T23:44:40.387Z,99945.27
2018-12-14T23:47:08.168Z,99976.58
2018-12-14T23:49:36.614Z,99960.92
2018-12-14T23:52:05.859Z,99943.33
2018-12-14T23:54:42.720Z,99959.75
2018-12-14T23:57:12.362Z,99962.69
2018-12-14T23:59:39.843Z,99987.35
